Nearby METAR Reports

 

ENRY - Rygge (nor-Afb), Norway
Distance from station: SØ 12km
Oppdatert: 20/05/2022 01:50
Hovedsaklig skyet
Hovedsaklig skyet
 Vind fra S
Vind: S 13 km/h
Temperatur: 12°C
Duggpunkt: 11°C
Fuktighet: 94%
Barometer: 1013 hPa
Clouds: Hovedsaklig skyet
Visibility: 10 km
Cloud details: Hovedsaklig skyet 91 m
Hovedsaklig skyet 2256 m
2022/05/19 23:50 ENRY 192350Z AUTO 19007KT 9999NDV BKN003/// BKN074/// 12/11 Q1013
ENTO - Torp (civ/Nor-Af, Norway
Distance from station: SV 34km
Oppdatert: 20/05/2022 01:50
Yr, Delvis skyet
Yr, Delvis skyet
 Vind fra SV
Vind: SV 7 km/h
Temperatur: 12°C
Duggpunkt: 12°C
Fuktighet: 100%
Barometer: 1013 hPa
Oversikt: Yr
Clouds: Delvis skyet
Visibility: 10 km
Cloud details: Few Clouds 1554 m
Delvis skyet 1890 m
2022/05/19 23:50 ENTO 192350Z AUTO 22004KT 180V270 9999 -DZ FEW051/// SCT062/// 12/12 Q1013
 
ENNO - Notodden, Norway
Distance from station: V 80km
Oppdatert: 19/05/2022 18:50
NOT Current
Klart
Klart
 Vind fra Ø
Vind: Ø 9 km/h
Temperatur: 19°C
Duggpunkt: 10°C
Fuktighet: 56%
Barometer: 1014 hPa
Oversikt: Klart
Visibility: greater than 10 km
2022/05/19 16:50 ENNO 191650Z 10005KT CAVOK 19/10 Q1014
ENGM - Oslo/Gardermoen, Norway
Distance from station: NNØ 88km
Oppdatert: 20/05/2022 01:50
Klart
Klart
 Vind fra SSV
Vind: SSV 6 km/h
Temperatur: 12°C
Duggpunkt: 10°C
Fuktighet: 88%
Barometer: 1012 hPa
Oversikt: Klart
Visibility: greater than 10 km
2022/05/19 23:50 ENGM 192350Z 21003KT CAVOK 12/10 Q1012
 
ESOK - Karlstad North, Sweden
Distance from station: Ø 153km
Oppdatert: 20/05/2022 01:50
Noe regn, Few clouds
Noe regn, Few clouds
 Vind fra V
Vind: V 4 km/h
Temperatur: 12°C
Duggpunkt: 12°C
Fuktighet: 100%
Barometer: 1012 hPa
Oversikt: Noe regn
Clouds: Few Clouds
Visibility: 7 km
Cloud details: Few Clouds 2316 m
2022/05/19 23:50 ESOK 192350Z AUTO 26002KT 7000 -RA FEW076/// 12/12 Q1012
ESST - Torsby, Sweden
Distance from station: ØNØ 154km
Oppdatert: 20/05/2022 01:50
Hovedsaklig skyet
Hovedsaklig skyet
 Vind fra ØNØ
Vind: ØNØ 7 km/h
Temperatur: 14°C
Duggpunkt: 12°C
Fuktighet: 88%
Barometer: 1012 hPa
Clouds: Hovedsaklig skyet
Visibility: 10 km
Cloud details: Few Clouds 1006 m
Delvis skyet 1554 m
Hovedsaklig skyet 1951 m
2022/05/19 23:50 ESST 192350Z AUTO 06004KT 360V100 9999 FEW033/// SCT051/// BKN064/// 14/12 Q1012
 
ESGT - Trollhattan (pvt, Sweden
Distance from station: SØ 159km
Oppdatert: 20/05/2022 01:50
Noe regn, Overskyet
Noe regn, Overskyet
 Vind fra VNV
Vind: VNV 11 km/h
Temperatur: 11°C
Duggpunkt: 9°C
Fuktighet: 88%
Barometer: 1014 hPa
Oversikt: Noe regn
Clouds: Overskyet
Visibility: 9 km
Cloud details: Overskyet 1463 m
2022/05/19 23:50 ESGT 192350Z AUTO 30006KT 260V320 9000 -RA OVC048/// 11/09 Q1014
ESIB - Satenas (swe-Afb, Sweden
Distance from station: SØ 164km
Oppdatert: 20/05/2022 01:50
Noe regn, Hovedsaklig skyet
Noe regn, Hovedsaklig skyet
 Vind fra V
Vind: V 17 km/h
Temperatur: 12°C
Duggpunkt: 10°C
Fuktighet: 88%
Barometer: 1014 hPa
Oversikt: Noe regn
Clouds: Hovedsaklig skyet
Visibility: 10 km
Cloud details: Few Clouds 244 m
Hovedsaklig skyet 1341 m
2022/05/19 23:50 ESIB 192350Z 27009KT 9999 -RA FEW008 BKN044 12/10 Q1014
 
ENCN - Kristiansand/Kje, Norway
Distance from station: SV 202km
Oppdatert: 20/05/2022 01:50
Hovedsaklig skyet
Hovedsaklig skyet
 Vind fra V
Vind: V 7 km/h
Temperatur: 11°C
Duggpunkt: 10°C
Fuktighet: 94%
Barometer: 1015 hPa
Clouds: Hovedsaklig skyet
Visibility: 10 km
Cloud details: Few Clouds 366 m
Hovedsaklig skyet 2682 m
2022/05/19 23:50 ENCN 192350Z AUTO 27004KT 220V350 9999 FEW012/// BKN088/// 11/10 Q1015
EKSN - Sindal Airport, Denmark
Distance from station: S 217km
Oppdatert: 30/12/2021 14:50
NOT Current
Tåke, Hovedsaklig skyet
Tåke, Hovedsaklig skyet
 Vind fra SV
Vind: SV 26 km/h
Temperatur: 7°C
Wind Chill: 3°C
Duggpunkt: 7°C
Fuktighet: 100%
Barometer: 999 hPa
Oversikt: Tåke
Clouds: Hovedsaklig skyet
Visibility: 5 km
Cloud details: Delvis skyet 183 m
Hovedsaklig skyet 244 m
2021/12/30 13:50 EKSN 301350Z 23014KT 4500 BR SCT006 BKN008 07/07 Q0999
 
ESGG - Goteborg/Landvet, Sweden
Distance from station: SSØ 220km
Oppdatert: 20/05/2022 01:50
Overskyet
Overskyet
 Vind fra V
Vind: V 7 km/h
Temperatur: 10°C
Wind Chill: 9°C
Duggpunkt: 8°C
Fuktighet: 88%
Barometer: 1014 hPa
Clouds: Overskyet
Visibility: 10 km
Cloud details: Hovedsaklig skyet 274 m
Overskyet 1737 m
2022/05/19 23:50 ESGG 192350Z 27004KT 9999 BKN009 OVC057 10/08 Q1014
ESGR - Skovde Airport, Sweden
Distance from station: ØSØ 221km
Oppdatert: 31/03/2022 14:50
NOT Current
Noe regn, Overskyet
Noe regn, Overskyet
 Vind fra varies
Vind: varies 0 km/h
Temperatur: 3°C
Duggpunkt: -8°C
Fuktighet: 45%
Barometer: 1011 hPa
Oversikt: Noe regn
Clouds: Overskyet
Visibility: 10 km
Cloud details: Overskyet 1676 m
2022/03/31 12:50 ESGR 311250Z AUTO /////KT 9999 -RA OVC055/// 03/M08 Q1011 REUP
 
ESOE - Orebro (private), Sweden
Distance from station: Ø 252km
Oppdatert: 20/05/2022 01:50
Yr, Hovedsaklig skyet
Yr, Hovedsaklig skyet
 Vind fra VSV
Vind: VSV 7 km/h
Temperatur: 14°C
Duggpunkt: 12°C
Fuktighet: 88%
Barometer: 1013 hPa
Oversikt: Yr
Clouds: Hovedsaklig skyet
Visibility: 10 km
Cloud details: Few Clouds 305 m
Hovedsaklig skyet 549 m
2022/05/19 23:50 ESOE 192350Z 25004KT 9999 -DZ FEW010 BKN018 14/12 Q1013
EKYT - Alborg, Denmark
Distance from station: S 264km
Oppdatert: 20/05/2022 01:50
Noe regn, Hovedsaklig skyet
Noe regn, Hovedsaklig skyet
 Vind fra VNV
Vind: VNV 4 km/h
Temperatur: 11°C
Duggpunkt: 10°C
Fuktighet: 94%
Barometer: 1015 hPa
Oversikt: Noe regn
Clouds: Hovedsaklig skyet
Visibility: 6 km
Cloud details: Hovedsaklig skyet 671 m
Hovedsaklig skyet 1676 m
2022/05/19 23:50 EKYT 192350Z AUTO 30002KT 6000 -RA BKN022/// BKN055/// 11/10 Q1015
 
ENSG - Sogndal/Haukasen, Norway
Distance from station: NV 269km
Oppdatert: 19/05/2022 21:50
NOT Current
Hovedsaklig skyet
Hovedsaklig skyet
 Vind fra V
Vind: V 9 km/h
Temperatur: 11°C
Duggpunkt: 3°C
Fuktighet: 58%
Barometer: 1016 hPa
Clouds: Hovedsaklig skyet
Visibility: 10 km
Cloud details: Hovedsaklig skyet 1524 m
2022/05/19 19:50 ENSG 191950Z 28005KT 9999 BKN050 11/03 Q1016 RMK WIND 3806FT 25007KT
ESGJ - Jonkoping Airpor, Sweden
Distance from station: SØ 273km
Oppdatert: 20/05/2022 01:50
Noe regn, Showers, Hovedsaklig skyet
Noe regn, Showers, Hovedsaklig skyet
 Vind fra V
Vind: V 7 km/h
Temperatur: 13°C
Duggpunkt: 11°C
Fuktighet: 88%
Barometer: 1014 hPa
Oversikt: Noe regn, Showers
Clouds: Hovedsaklig skyet
Visibility: 10 km
Cloud details: Hovedsaklig skyet 1250 m
2022/05/19 23:50 ESGJ 192350Z 27004KT 9999 -SHRA BKN041 13/11 Q1014
 
ENZV - Stavanger/Sola(A, Norway
Distance from station: V 292km
Oppdatert: 20/05/2022 01:50
Overskyet
Overskyet
 Vind fra SSV
Vind: SSV 7 km/h
Temperatur: 10°C
Wind Chill: 9°C
Duggpunkt: 9°C
Fuktighet: 94%
Barometer: 1017 hPa
Clouds: Overskyet
Visibility: 10 km
Cloud details: Few Clouds 91 m
Overskyet 152 m
2022/05/19 23:50 ENZV 192350Z 20004KT 9999 FEW003 OVC005 10/09 Q1017
ESSD - Borlange (swe-Af, Sweden
Distance from station: ØNØ 292km
Oppdatert: 20/05/2022 01:50
Overskyet
Overskyet
 Vind fra ØNØ
Vind: ØNØ 6 km/h
Temperatur: 9°C
Duggpunkt: 3°C
Fuktighet: 66%
Barometer: 1014 hPa
Clouds: Overskyet
Visibility: 10 km
Cloud details: Hovedsaklig skyet 549 m
Overskyet 1798 m
2022/05/19 23:50 ESSD 192350Z AUTO 06003KT 9999 BKN018/// OVC059/// 09/03 Q1014
 
ENSO - Stord/Soerstokke, Norway
Distance from station: V 300km
Oppdatert: 19/05/2022 20:20
NOT Current
Hovedsaklig skyet
Hovedsaklig skyet
 Vind fra S
Vind: S 6 km/h
Temperatur: 11°C
Duggpunkt: 11°C
Fuktighet: 100%
Barometer: 1016 hPa
Clouds: Hovedsaklig skyet
Visibility: 6 km
Cloud details: Hovedsaklig skyet 122 m
2022/05/19 18:20 ENSO 191820Z 19003KT 6000 BKN004 11/11 Q1016
ESCF - Linkoping/Malmen, Sweden
Distance from station: ØSØ 305km
Oppdatert: 20/05/2022 01:50
Noe regn, Showers, Overskyet
Noe regn, Showers, Overskyet
 Vind fra NNV
Vind: NNV 9 km/h
Temperatur: 15°C
Duggpunkt: 14°C
Fuktighet: 94%
Barometer: 1013 hPa
Oversikt: Noe regn, Showers
Clouds: Overskyet
Visibility: 7 km
Cloud details: Delvis skyet 122 m
Overskyet 823 m
2022/05/19 23:50 ESCF 192350Z AUTO 33005KT 7000 -SHRA SCT004/// OVC027/// 15/14 Q1013